地図

経路データ

SID SEASON NUMBER BASIN SUBBASIN NAME ISO_TIME NATURE LAT LON WMO_WIND WMO_PRES WMO_AGENCY TRACK_TYPE DIST2LAND LANDFALL IFLAG USA_AGENCY USA_ATCF_ID USA_LAT USA_LON USA_RECORD USA_STATUS USA_WIND USA_PRES USA_SSHS USA_R34_NE USA_R34_SE USA_R34_SW USA_R34_NW USA_R50_NE USA_R50_SE USA_R50_SW USA_R50_NW USA_R64_NE USA_R64_SE USA_R64_SW USA_R64_NW USA_POCI USA_ROCI USA_RMW USA_EYE TOKYO_LAT TOKYO_LON TOKYO_GRADE TOKYO_WIND TOKYO_PRES TOKYO_R50_DIR TOKYO_R50_LONG TOKYO_R50_SHORT TOKYO_R30_DIR TOKYO_R30_LONG TOKYO_R30_SHORT TOKYO_LAND CMA_LAT CMA_LON CMA_CAT CMA_WIND CMA_PRES HKO_LAT HKO_LON HKO_CAT HKO_WIND HKO_PRES NEWDELHI_LAT NEWDELHI_LON NEWDELHI_GRADE NEWDELHI_WIND NEWDELHI_PRES NEWDELHI_CI NEWDELHI_DP NEWDELHI_POCI REUNION_LAT REUNION_LON REUNION_TYPE REUNION_WIND REUNION_PRES REUNION_TNUM REUNION_CI REUNION_RMW REUNION_R34_NE REUNION_R34_SE REUNION_R34_SW REUNION_R34_NW REUNION_R50_NE REUNION_R50_SE REUNION_R50_SW REUNION_R50_NW REUNION_R64_NE REUNION_R64_SE REUNION_R64_SW REUNION_R64_NW BOM_LAT BOM_LON BOM_TYPE BOM_WIND BOM_PRES BOM_TNUM BOM_CI BOM_RMW BOM_R34_NE BOM_R34_SE BOM_R34_SW BOM_R34_NW BOM_R50_NE BOM_R50_SE BOM_R50_SW BOM_R50_NW BOM_R64_NE BOM_R64_SE BOM_R64_SW BOM_R64_NW BOM_ROCI BOM_POCI BOM_EYE BOM_POS_METHOD BOM_PRES_METHOD NADI_LAT NADI_LON NADI_CAT NADI_WIND NADI_PRES WELLINGTON_LAT WELLINGTON_LON WELLINGTON_WIND WELLINGTON_PRES DS824_LAT DS824_LON DS824_STAGE DS824_WIND DS824_PRES TD9636_LAT TD9636_LON TD9636_STAGE TD9636_WIND TD9636_PRES TD9635_LAT TD9635_LON TD9635_WIND TD9635_PRES TD9635_ROCI NEUMANN_LAT NEUMANN_LON NEUMANN_CLASS NEUMANN_WIND NEUMANN_PRES MLC_LAT MLC_LON MLC_CLASS MLC_WIND MLC_PRES USA_GUST BOM_GUST BOM_GUST_PER REUNION_GUST REUNION_GUST_PER USA_SEAHGT USA_SEARAD_NE USA_SEARAD_SE USA_SEARAD_SW USA_SEARAD_NW STORM_SPEED STORM_DIR
1908324N13136 1908 53 WP MM NOT_NAMED 1908-11-18 16:00:00 NR 12.8000 136.100 main 1139 912 __________O___ -1 12.8000 136.100 7 65 278
1908324N13136 1908 53 WP MM NOT_NAMED 1908-11-18 18:00:00 NR 13.0997 133.887 main 912 582 __________P___ -1 13.0997 133.887 7 64 278
1908324N13136 1908 53 WP MM NOT_NAMED 1908-11-18 21:00:00 NR 13.4983 130.685 main 582 307 __________P___ -1 13.4983 130.685 7 59 277
1908324N13136 1908 53 WP MM NOT_NAMED 1908-11-19 00:00:00 NR 13.8170 127.840 main 307 130 __________P___ -1 13.8170 127.840 7 50 276
1908324N13136 1908 53 WP MM NOT_NAMED 1908-11-19 03:00:00 NR 14.0449 125.583 main 130 78 __________P___ -1 14.0449 125.583 7 42 276
1908324N13136 1908 53 WP MM NOT_NAMED 1908-11-19 04:00:00 NR 14.1000 125.000 main 68 22 __________O___ -1 14.1000 125.000 3 29 275
1908324N13136 1908 53 WP MM NOT_NAMED 1908-11-19 06:00:00 NR 14.1811 124.110 main 22 24 __________P___ -1 14.1811 124.110 3 20 275
1908324N13136 1908 53 WP MM NOT_NAMED 1908-11-19 09:00:00 NR 14.2544 123.330 main 33 15 __________P___ -1 14.2544 123.330 3 11 276
1908324N13136 1908 53 WP MM NOT_NAMED 1908-11-19 12:00:00 NR 14.3054 122.974 main 15 11 __________P___ -1 14.3054 122.974 3 5 282
1908324N13136 1908 53 WP MM NOT_NAMED 1908-11-19 15:00:00 NR 14.3698 122.777 main 22 22 __________P___ -1 14.3698 122.777 3 4 290
1908324N13136 1908 53 WP MM NOT_NAMED 1908-11-19 16:00:00 NR 14.4000 122.700 main 22 22 __________O___ -1 14.4000 122.700 4 9 286
1908324N13136 1908 53 WP MM NOT_NAMED 1908-11-19 18:00:00 NR 14.4935 122.336 main 35 10 __________P___ -1 14.4935 122.336 4 11 287
1908324N13136 1908 53 WP MM NOT_NAMED 1908-11-19 21:00:00 NR 14.6592 121.803 main 10 0 __________P___ -1 14.6592 121.803 4 11 289
1908324N13136 1908 53 WP MM NOT_NAMED 1908-11-20 00:00:00 NR 14.8444 121.281 main 0 0 __________P___ -1 14.8444 121.281 4 11 291
1908324N13136 1908 53 WP MM NOT_NAMED 1908-11-20 03:00:00 NR 15.0366 120.769 main 0 0 __________P___ -1 15.0366 120.769 4 11 291
1908324N13136 1908 53 WP MM NOT_NAMED 1908-11-20 04:00:00 NR 15.1000 120.600 main 0 0 __________O___ -1 15.1000 120.600 4 11 289
1908324N13136 1908 53 WP MM NOT_NAMED 1908-11-20 06:00:00 NR 15.2086 120.253 main 0 0 __________P___ -1 15.2086 120.253 4 11 288
1908324N13136 1908 53 WP MM NOT_NAMED 1908-11-20 09:00:00 NR 15.3715 119.738 main 21 21 __________P___ -1 15.3715 119.738 4 10 289
1908324N13136 1908 53 WP MM NOT_NAMED 1908-11-20 12:00:00 NR 15.5428 119.237 main 75 69 __________P___ -1 15.5428 119.237 4 10 291
1908324N13136 1908 53 WP MM NOT_NAMED 1908-11-20 15:00:00 NR 15.7315 118.755 main 101 109 __________P___ -1 15.7315 118.755 4 10 293
1908324N13136 1908 53 WP MM NOT_NAMED 1908-11-20 16:00:00 NR 15.8000 118.600 main 119 119 __________O___ -1 15.8000 118.600 4 10 291
1908324N13136 1908 53 WP MM NOT_NAMED 1908-11-20 18:00:00 NR 15.9103 118.263 main 150 160 __________P___ -1 15.9103 118.263 4 10 290
1908324N13136 1908 53 WP MM NOT_NAMED 1908-11-20 21:00:00 NR 16.0938 117.775 main 203 214 __________P___ -1 16.0938 117.775 4 10 295
1908324N13136 1908 53 WP MM NOT_NAMED 1908-11-21 00:00:00 NR 16.3322 117.340 main 258 258 __________P___ -1 16.3322 117.340 4 9 307
1908324N13136 1908 53 WP MM NOT_NAMED 1908-11-21 03:00:00 NR 16.6628 116.991 main 298 298 __________P___ -1 16.6628 116.991 4 9 318
1908324N13136 1908 53 WP MM NOT_NAMED 1908-11-21 04:00:00 NR 16.8000 116.900 main 311 311 __________O___ -1 16.8000 116.900 4 11 332
1908324N13136 1908 53 WP MM NOT_NAMED 1908-11-21 06:00:00 NR 17.1645 116.718 main 345 345 __________P___ -1 17.1645 116.718 4 13 341
1908324N13136 1908 53 WP MM NOT_NAMED 1908-11-21 09:00:00 NR 17.8070 116.532 main 388 388 __________P___ -1 17.8070 116.532 4 14 350
1908324N13136 1908 53 WP MM NOT_NAMED 1908-11-21 12:00:00 NR 18.4868 116.467 main 414 409 __________P___ -1 18.4868 116.467 4 13 0
1908324N13136 1908 53 WP MM NOT_NAMED 1908-11-21 15:00:00 NR 19.1164 116.541 main 409 389 __________P___ -1 19.1164 116.541 4 12 9
1908324N13136 1908 53 WP MM NOT_NAMED 1908-11-21 16:00:00 NR 19.3000 116.600 main 389 361 __________O___ -1 19.3000 116.600 4 11 24
1908324N13136 1908 53 WP MM NOT_NAMED 1908-11-21 18:00:00 NR 19.5929 116.771 main 361 332 __________P___ -1 19.5929 116.771 4 10 39
1908324N13136 1908 53 WP MM NOT_NAMED 1908-11-21 21:00:00 NR 19.9507 117.154 main 332 319 __________P___ -1 19.9507 117.154 4 10 52
1908324N13136 1908 53 WP MM NOT_NAMED 1908-11-22 00:00:00 NR 20.2267 117.631 main 322 314 __________P___ -1 20.2267 117.631 4 10 62
1908324N13136 1908 53 WP MM NOT_NAMED 1908-11-22 03:00:00 NR 20.4397 118.137 main 317 293 __________P___ -1 20.4397 118.137 4 10 66
1908324N13136 1908 53 WP MM NOT_NAMED 1908-11-22 04:00:00 NR 20.5000 118.300 main 293 261 __________O___ -1 20.5000 118.300 4 9 65
1908324N13136 1908 53 WP MM NOT_NAMED 1908-11-22 06:00:00 NR 20.6308 118.570 main 261 214 __________P___ -1 20.6308 118.570 4 8 66
1908324N13136 1908 53 WP MM NOT_NAMED 1908-11-22 09:00:00 NR 20.7834 118.969 main 214 174 __________P___ -1 20.7834 118.969 4 8 70
1908324N13136 1908 53 WP MM NOT_NAMED 1908-11-22 12:00:00 NR 20.8945 119.365 main 174 137 __________P___ -1 20.8945 119.365 4 8 75
1908324N13136 1908 53 WP MM NOT_NAMED 1908-11-22 15:00:00 NR 20.9768 119.765 main 137 130 __________P___ -1 20.9768 119.765 4 8 78
1908324N13136 1908 53 WP MM NOT_NAMED 1908-11-22 16:00:00 NR 21.0000 119.900 main 130 103 __________O___ -1 21.0000 119.900 4 8 78
1908324N13136 1908 53 WP MM NOT_NAMED 1908-11-22 18:00:00 NR 21.0581 120.172 main 103 90 __________P___ -1 21.0581 120.172 4 8 79
1908324N13136 1908 53 WP MM NOT_NAMED 1908-11-22 21:00:00 NR 21.1266 120.587 main 90 78 __________P___ -1 21.1266 120.587 4 8 82
1908324N13136 1908 53 WP MM NOT_NAMED 1908-11-23 00:00:00 NR 21.1728 121.012 main 78 78 __________P___ -1 21.1728 121.012 4 8 85
1908324N13136 1908 53 WP MM NOT_NAMED 1908-11-23 03:00:00 NR 21.1969 121.450 main 99 99 __________P___ -1 21.1969 121.450 4 8 87
1908324N13136 1908 53 WP MM NOT_NAMED 1908-11-23 04:00:00 NR 21.2000 121.600 main 106 106 __________O___ -1 21.2000 121.600 4 9 88
1908324N13136 1908 53 WP MM NOT_NAMED 1908-11-23 06:00:00 NR 21.2084 121.918 main 129 129 __________P___ -1 21.2084 121.918 4 9 90
1908324N13136 1908 53 WP MM NOT_NAMED 1908-11-23 09:00:00 NR 21.2023 122.409 main 173 173 __________P___ -1 21.2023 122.409 4 9 92
1908324N13136 1908 53 WP MM NOT_NAMED 1908-11-23 12:00:00 NR 21.1736 122.895 main 221 221 __________P___ -1 21.1736 122.895 4 9 95
1908324N13136 1908 53 WP MM NOT_NAMED 1908-11-23 15:00:00 NR 21.1222 123.356 main 273 273 __________P___ -1 21.1222 123.356 4 9 97
1908324N13136 1908 53 WP MM NOT_NAMED 1908-11-23 16:00:00 NR 21.1000 123.500 main 283 283 __________O___ -1 21.1000 123.500 4 8 101
1908324N13136 1908 53 WP MM NOT_NAMED 1908-11-23 18:00:00 NR 21.0485 123.771 main 316 316 __________P___ -1 21.0485 123.771 4 7 104
1908324N13136 1908 53 WP MM NOT_NAMED 1908-11-23 21:00:00 NR 20.9564 124.140 main 346 343 __________P___ -1 20.9564 124.140 4 7 107
1908324N13136 1908 53 WP MM NOT_NAMED 1908-11-24 00:00:00 NR 20.8512 124.477 main 362 353 __________P___ -1 20.8512 124.477 4 7 110
1908324N13136 1908 53 WP MM NOT_NAMED 1908-11-24 03:00:00 NR 20.7384 124.796 main 367 367 __________P___ -1 20.7384 124.796 4 6 111
1908324N13136 1908 53 WP MM NOT_NAMED 1908-11-24 04:00:00 NR 20.7000 124.900 main 374 __________O___ -1 20.7000 124.900 7 6 112

デジタル台風データ・検索

IBTrACS Databaseについて

本データベースは、米国NOAAが公開する1842年以降の世界の熱帯低気圧のベストトラックデータアーカイブInternational Best Track Archive for Climate Stewardship (IBTrACS)を、ウェブで閲覧しやすい形式に変換したものです。

最終更新日:2021-11-26